KBNA/BNA METAR and TAF weather

Enter ICAO airport designator
Station Type Date Time Source
KBNA METAR 2019/06/16 11:53 UTC NOAA

KBNA 161153Z 21007KT 10SM FEW050 SCT090 SCT120 BKN250 24/18 A2999 RMK AO2 SLP148 T02440183 10244 20222 53011


Station Type Date Time Source
KBNA Decoded METAR 2019/06/16 11:53 UTC NOAA

NASHVILLE INTERNATIONAL AIRPORT, TN, United States (KBNA) 36-07N 086-41W 210M
Jun 16, 2019 - 07:53 AM EDT / 2019.06.16 1153 UTC
Wind: from the SSW (210 degrees) at 8 MPH (7 KT):0
Visibility: 10 mile(s):0
Sky conditions: mostly cloudy
Temperature: 75.9 F (24.4 C)
Dew Point: 64.9 F (18.3 C)
Relative Humidity: 68%
Pressure (altimeter): 29.99 in. Hg (1015 hPa)
Pressure tendency: 0.03 inches (1.1 hPa) higher than three hours ago
ob: KBNA 161153Z 21007KT 10SM FEW050 SCT090 SCT120 BKN250 24/18 A2999 RMK AO2 SLP148 T02440183 10244 20222 53011
cycle: 12

Station Type Date Time Source
KBNA TAF 2019/06/16 12:30 UTC NOAA

TAF KBNA 161129Z 1612/1712 20011KT P6SM VCSH SCT050 BKN080
FM161300 22012G20KT P6SM SCT050 BKN150
FM170200 20006KT P6SM FEW050 BKN150

Example: see airport list